createdAt,value
2023-08-17T00:00:12.372Z,4.45
2023-08-17T00:02:39.939Z,4.07
2023-08-17T00:05:08.298Z,4.20
2023-08-17T00:07:35.949Z,4.28
2023-08-17T00:10:03.772Z,4.15
2023-08-17T00:12:32.717Z,4.35
2023-08-17T00:15:00.271Z,4.32
2023-08-17T00:17:28.087Z,4.00
2023-08-17T00:19:55.941Z,4.47
2023-08-17T00:22:23.532Z,4.70
2023-08-17T00:24:51.348Z,6.65
2023-08-17T00:27:18.992Z,5.10
2023-08-17T00:29:48.013Z,5.20
2023-08-17T00:32:15.573Z,4.88
2023-08-17T00:34:43.116Z,4.75
2023-08-17T00:37:10.796Z,5.00
2023-08-17T00:39:38.387Z,4.57
2023-08-17T00:42:06.316Z,6.82
2023-08-17T00:44:33.860Z,5.45
2023-08-17T00:47:02.945Z,5.57
2023-08-17T00:49:31.019Z,4.85
2023-08-17T00:51:58.980Z,5.00
2023-08-17T00:54:29.253Z,4.85
2023-08-17T00:56:57.077Z,3.90
2023-08-17T00:59:25.651Z,4.47
2023-08-17T01:01:53.530Z,4.63
2023-08-17T01:04:22.573Z,5.07
2023-08-17T01:06:50.243Z,4.85
2023-08-17T01:09:17.879Z,5.03
2023-08-17T01:12:25.638Z,5.13
2023-08-17T01:15:01.584Z,4.57
2023-08-17T01:17:33.890Z,5.10
2023-08-17T01:20:05.120Z,4.45
2023-08-17T01:22:34.752Z,4.57
2023-08-17T01:25:04.315Z,3.67
2023-08-17T01:27:38.725Z,3.85
2023-08-17T01:30:07.926Z,3.50
2023-08-17T01:32:40.667Z,2.85
2023-08-17T01:35:16.158Z,2.88
2023-08-17T01:37:45.185Z,2.72
2023-08-17T01:40:15.797Z,3.00
2023-08-17T01:42:44.599Z,2.75
2023-08-17T01:45:13.249Z,3.08
2023-08-17T01:47:40.812Z,3.00
2023-08-17T01:50:08.856Z,2.88
2023-08-17T01:52:36.538Z,2.83
2023-08-17T01:55:04.152Z,3.03
2023-08-17T01:57:33.051Z,3.00
2023-08-17T02:00:01.343Z,3.17
2023-08-17T02:02:28.933Z,3.83
2023-08-17T02:04:56.539Z,3.38
2023-08-17T02:07:24.373Z,4.32
2023-08-17T02:09:52.118Z,3.95
2023-08-17T02:12:19.654Z,4.78
2023-08-17T02:14:48.806Z,5.72
2023-08-17T02:17:17.493Z,6.00
2023-08-17T02:19:45.052Z,5.63
2023-08-17T02:22:12.683Z,5.72
2023-08-17T02:24:40.254Z,6.32
2023-08-17T02:27:07.827Z,5.60
2023-08-17T02:29:35.359Z,5.55
2023-08-17T02:32:04.435Z,5.38
2023-08-17T02:34:31.966Z,5.57
2023-08-17T02:36:59.512Z,6.13
2023-08-17T02:39:28.346Z,6.22
2023-08-17T02:41:55.896Z,6.28
2023-08-17T02:44:23.468Z,6.10
2023-08-17T02:46:50.999Z,6.05
2023-08-17T02:49:21.290Z,5.97
2023-08-17T02:51:48.885Z,6.13
2023-08-17T02:54:16.406Z,5.75
2023-08-17T02:56:43.985Z,6.00
2023-08-17T02:59:11.511Z,6.45
2023-08-17T03:01:39.205Z,6.55
2023-08-17T03:04:07.180Z,6.85
2023-08-17T03:06:36.050Z,7.25
2023-08-17T03:09:03.623Z,7.13
2023-08-17T03:11:31.166Z,6.70
2023-08-17T03:14:01.138Z,6.70
2023-08-17T03:16:31.027Z,7.15
2023-08-17T03:18:59.159Z,6.53
2023-08-17T03:21:27.299Z,6.35
2023-08-17T03:23:56.201Z,5.93
2023-08-17T03:26:23.839Z,5.55
2023-08-17T03:28:51.355Z,5.95
2023-08-17T03:31:18.996Z,5.63
2023-08-17T03:33:46.562Z,6.63
2023-08-17T03:36:14.290Z,6.50
2023-08-17T03:38:41.866Z,6.53
2023-08-17T03:41:12.153Z,6.18
2023-08-17T03:43:39.686Z,5.97
2023-08-17T03:46:07.374Z,5.43
2023-08-17T03:48:35.063Z,5.30
2023-08-17T03:51:03.580Z,5.53
2023-08-17T03:53:31.101Z,5.28
2023-08-17T03:55:58.655Z,5.53
2023-08-17T03:58:27.786Z,6.18
2023-08-17T04:00:55.685Z,5.90
2023-08-17T04:03:23.253Z,5.70
2023-08-17T04:05:50.811Z,6.63
2023-08-17T04:08:18.508Z,6.18
2023-08-17T04:10:46.050Z,6.68
2023-08-17T04:13:13.575Z,6.40
2023-08-17T04:15:42.479Z,6.65
2023-08-17T04:18:10.071Z,6.80
2023-08-17T04:20:37.645Z,7.07
2023-08-17T04:23:06.235Z,6.70
2023-08-17T04:25:33.802Z,6.55
2023-08-17T04:28:01.431Z,6.35
2023-08-17T04:30:29.063Z,7.30
2023-08-17T04:32:57.978Z,7.13
2023-08-17T04:35:25.530Z,7.85
2023-08-17T04:37:53.111Z,7.75
2023-08-17T04:40:20.692Z,6.95
2023-08-17T04:42:48.271Z,8.02
2023-08-17T04:45:15.823Z,8.02
2023-08-17T04:47:43.453Z,7.85
2023-08-17T04:50:17.071Z,8.30
2023-08-17T04:52:44.995Z,7.65
2023-08-17T04:55:12.979Z,7.90
2023-08-17T04:57:40.559Z,8.15
2023-08-17T05:00:10.509Z,7.57
2023-08-17T05:02:38.697Z,7.63
2023-08-17T05:05:07.619Z,8.13
2023-08-17T05:07:36.726Z,7.82
2023-08-17T05:10:04.962Z,7.97
2023-08-17T05:12:32.563Z,8.65
2023-08-17T05:15:00.141Z,7.85
2023-08-17T05:17:28.071Z,8.38
2023-08-17T05:19:57.041Z,8.23
2023-08-17T05:22:25.071Z,7.80
2023-08-17T05:24:54.029Z,8.05
2023-08-17T05:27:21.618Z,8.82
2023-08-17T05:29:49.184Z,8.65
2023-08-17T05:32:16.787Z,9.75
2023-08-17T05:34:44.349Z,9.30
2023-08-17T05:37:11.904Z,9.27
2023-08-17T05:39:40.391Z,9.18
2023-08-17T05:42:10.913Z,9.00
2023-08-17T05:44:38.493Z,8.45
2023-08-17T05:47:06.165Z,8.85
2023-08-17T05:49:33.700Z,8.90
2023-08-17T05:52:01.260Z,9.43
2023-08-17T05:54:28.798Z,9.10
2023-08-17T05:56:56.629Z,10.23
2023-08-17T05:59:25.686Z,10.90
2023-08-17T06:01:53.319Z,10.63
2023-08-17T06:04:21.779Z,10.43
2023-08-17T06:06:49.506Z,10.30
2023-08-17T06:09:17.078Z,11.48
2023-08-17T06:11:44.682Z,10.15
2023-08-17T06:14:12.253Z,10.38
2023-08-17T06:16:41.276Z,9.90
2023-08-17T06:19:08.839Z,9.65
2023-08-17T06:21:36.373Z,10.82
2023-08-17T06:24:04.172Z,12.05
2023-08-17T06:26:31.961Z,11.38
2023-08-17T06:29:00.008Z,11.80
2023-08-17T06:31:28.703Z,11.82
2023-08-17T06:33:57.872Z,11.32
2023-08-17T06:36:25.447Z,12.10
2023-08-17T06:38:52.998Z,11.32
2023-08-17T06:41:20.833Z,12.10
2023-08-17T06:43:48.435Z,11.48
2023-08-17T06:46:16.094Z,11.77
2023-08-17T06:48:44.807Z,10.30
2023-08-17T06:51:13.749Z,11.40
2023-08-17T06:53:41.266Z,10.65
2023-08-17T06:56:09.085Z,10.60
2023-08-17T06:58:36.620Z,11.18
2023-08-17T07:01:04.204Z,11.00
2023-08-17T07:03:31.753Z,11.02
2023-08-17T07:05:59.844Z,11.30
2023-08-17T07:08:28.762Z,11.10
2023-08-17T07:10:56.914Z,10.45
2023-08-17T07:13:24.493Z,11.00
2023-08-17T07:15:52.125Z,10.77
2023-08-17T07:18:20.135Z,11.60
2023-08-17T07:20:47.661Z,11.43
2023-08-17T07:23:15.192Z,11.43
2023-08-17T07:25:45.268Z,10.45
2023-08-17T07:28:12.922Z,10.40
2023-08-17T07:30:40.494Z,10.07
2023-08-17T07:33:08.152Z,11.02
2023-08-17T07:35:35.849Z,10.27
2023-08-17T07:38:08.729Z,10.35
2023-08-17T07:40:37.345Z,10.38
2023-08-17T07:43:06.357Z,10.88
2023-08-17T07:45:34.200Z,10.82
2023-08-17T07:48:02.026Z,10.65
2023-08-17T07:50:29.750Z,11.20
2023-08-17T07:52:57.394Z,10.57
2023-08-17T07:55:25.539Z,10.20
2023-08-17T07:57:53.136Z,10.02
2023-08-17T08:00:22.298Z,10.88
2023-08-17T08:02:49.951Z,9.55
2023-08-17T08:05:17.695Z,9.85
2023-08-17T08:07:45.308Z,10.18
2023-08-17T08:10:13.075Z,10.10
2023-08-17T08:12:40.658Z,10.45
2023-08-17T08:15:09.562Z,10.05
2023-08-17T08:17:38.690Z,9.52
2023-08-17T08:20:07.598Z,10.02
2023-08-17T08:22:35.133Z,9.90
2023-08-17T08:25:02.837Z,9.85
2023-08-17T08:27:30.456Z,10.05
2023-08-17T08:29:58.554Z,10.88
2023-08-17T08:32:27.858Z,10.52
2023-08-17T08:34:57.667Z,10.57
2023-08-17T08:37:25.872Z,10.30
2023-08-17T08:39:55.543Z,9.93
2023-08-17T08:42:24.529Z,9.63
2023-08-17T08:44:52.840Z,10.68
2023-08-17T08:47:20.561Z,9.50
2023-08-17T08:50:04.051Z,9.68
2023-08-17T08:52:37.168Z,10.98
2023-08-17T08:55:13.104Z,10.00
2023-08-17T08:57:41.676Z,10.40
2023-08-17T09:00:10.753Z,10.52
2023-08-17T09:02:38.979Z,10.63
2023-08-17T09:05:08.916Z,10.32
2023-08-17T09:07:40.028Z,10.48
2023-08-17T09:10:08.567Z,9.93
2023-08-17T09:12:41.051Z,10.70
2023-08-17T09:15:10.115Z,9.60
2023-08-17T09:17:38.150Z,10.20
2023-08-17T09:20:08.876Z,10.02
2023-08-17T09:22:43.090Z,11.00
2023-08-17T09:25:11.829Z,10.82
2023-08-17T09:27:40.280Z,10.50
2023-08-17T09:30:11.117Z,10.60
2023-08-17T09:32:39.044Z,10.40
2023-08-17T09:35:07.879Z,10.70
2023-08-17T09:37:35.848Z,11.23
2023-08-17T09:40:05.741Z,11.30
2023-08-17T09:42:36.816Z,10.52
2023-08-17T09:45:05.088Z,10.65
2023-08-17T09:47:32.680Z,11.60
2023-08-17T09:50:00.269Z,10.73
2023-08-17T09:52:28.049Z,10.48
2023-08-17T09:54:56.719Z,10.82
2023-08-17T09:57:26.465Z,11.02
2023-08-17T09:59:56.285Z,10.85
2023-08-17T10:02:26.349Z,10.00
2023-08-17T10:04:56.002Z,10.30
2023-08-17T10:07:26.580Z,11.55
2023-08-17T10:09:58.880Z,10.65
2023-08-17T10:12:30.617Z,11.15
2023-08-17T10:15:04.288Z,10.50
2023-08-17T10:17:37.328Z,10.23
2023-08-17T10:20:06.377Z,11.88
2023-08-17T10:22:39.415Z,10.40
2023-08-17T10:25:12.674Z,11.13
2023-08-17T10:27:42.114Z,10.77
2023-08-17T10:30:13.596Z,10.48
2023-08-17T10:32:46.502Z,9.98
2023-08-17T10:35:15.665Z,9.40
2023-08-17T10:37:44.185Z,9.88
2023-08-17T10:40:15.722Z,9.65
2023-08-17T10:42:47.323Z,9.18
2023-08-17T10:45:31.653Z,9.55
2023-08-17T10:48:27.903Z,8.90
2023-08-17T10:51:05.285Z,9.07
2023-08-17T10:53:39.762Z,8.57
2023-08-17T10:56:10.075Z,8.55
2023-08-17T10:58:39.304Z,7.72
2023-08-17T11:01:06.962Z,6.82
2023-08-17T11:03:34.958Z,7.15
2023-08-17T11:06:19.124Z,7.03
2023-08-17T11:08:55.073Z,6.32
2023-08-17T11:11:24.055Z,5.65
2023-08-17T11:13:57.461Z,6.45
2023-08-17T11:16:25.826Z,6.60
2023-08-17T11:18:53.980Z,6.80
2023-08-17T11:21:21.908Z,6.47
2023-08-17T11:23:49.777Z,6.63
2023-08-17T11:26:18.011Z,7.22
2023-08-17T11:28:46.290Z,5.95
2023-08-17T11:31:17.164Z,6.15
2023-08-17T11:33:45.912Z,6.35
2023-08-17T11:36:13.614Z,5.63
2023-08-17T11:38:43.209Z,5.50
2023-08-17T11:41:18.525Z,5.57
2023-08-17T11:43:47.832Z,5.75
2023-08-17T11:46:17.513Z,4.97
2023-08-17T11:48:45.677Z,4.97
2023-08-17T11:51:14.029Z,6.05
2023-08-17T11:53:42.084Z,5.65
2023-08-17T11:56:11.537Z,5.53
2023-08-17T11:58:43.557Z,4.97
2023-08-17T12:01:13.228Z,5.88
2023-08-17T12:03:43.449Z,5.75
2023-08-17T12:06:13.874Z,5.80
2023-08-17T12:08:46.741Z,5.43
2023-08-17T12:11:14.906Z,5.47
2023-08-17T12:13:42.552Z,5.95
2023-08-17T12:16:16.930Z,5.90
2023-08-17T12:18:47.604Z,5.53
2023-08-17T12:21:15.284Z,6.18
2023-08-17T12:23:44.071Z,6.38
2023-08-17T12:26:12.188Z,6.28
2023-08-17T12:28:42.281Z,6.65
2023-08-17T12:31:09.963Z,7.80
2023-08-17T12:33:37.625Z,6.82
2023-08-17T12:36:07.989Z,7.40
2023-08-17T12:38:36.056Z,7.22
2023-08-17T12:41:07.015Z,7.30
2023-08-17T12:43:34.895Z,8.18
2023-08-17T12:46:02.462Z,9.48
2023-08-17T12:48:30.030Z,8.82
2023-08-17T12:50:57.610Z,8.35
2023-08-17T12:53:26.650Z,8.77
2023-08-17T12:55:55.993Z,8.82
2023-08-17T12:58:24.106Z,9.15
2023-08-17T13:00:52.163Z,8.32
2023-08-17T13:03:20.026Z,8.75
2023-08-17T13:05:47.784Z,8.88
2023-08-17T13:08:15.393Z,9.70
2023-08-17T13:10:44.453Z,9.07
2023-08-17T13:13:12.105Z,9.52
2023-08-17T13:15:39.713Z,10.63
2023-08-17T13:18:07.765Z,10.50
2023-08-17T13:20:35.506Z,10.55
2023-08-17T13:23:03.167Z,10.77
2023-08-17T13:25:30.781Z,9.88
2023-08-17T13:27:59.709Z,11.10
2023-08-17T13:30:27.486Z,10.30
2023-08-17T13:32:55.118Z,9.57
2023-08-17T13:35:22.750Z,10.68
2023-08-17T13:37:54.593Z,9.65
2023-08-17T13:40:22.168Z,9.98
2023-08-17T13:42:49.733Z,9.25
2023-08-17T13:45:19.106Z,8.93
2023-08-17T13:48:04.753Z,9.13
2023-08-17T13:50:32.362Z,8.18
2023-08-17T13:53:01.299Z,8.50
2023-08-17T13:55:29.179Z,8.85
2023-08-17T13:57:57.347Z,8.50
2023-08-17T14:00:27.566Z,8.52
2023-08-17T14:02:55.440Z,8.60
2023-08-17T14:05:23.066Z,8.73
2023-08-17T14:07:50.652Z,8.50
2023-08-17T14:10:29.229Z,8.50
2023-08-17T14:13:05.602Z,7.95
2023-08-17T14:15:34.510Z,8.95
2023-08-17T14:18:02.096Z,8.23
2023-08-17T14:20:29.982Z,8.32
2023-08-17T14:22:57.502Z,8.13
2023-08-17T14:25:25.032Z,8.35
2023-08-17T14:27:52.617Z,8.25
2023-08-17T14:30:20.168Z,9.10
2023-08-17T14:32:49.069Z,8.68
2023-08-17T14:35:16.623Z,8.77
2023-08-17T14:37:44.098Z,8.07
2023-08-17T14:40:12.322Z,9.30
2023-08-17T14:42:40.199Z,9.63
2023-08-17T14:45:08.774Z,8.80
2023-08-17T14:47:36.400Z,8.63
2023-08-17T14:50:06.565Z,9.85
2023-08-17T14:52:34.722Z,9.30
2023-08-17T14:55:02.443Z,9.43
2023-08-17T14:57:30.069Z,10.32
2023-08-17T14:59:57.816Z,10.23
2023-08-17T15:02:25.437Z,9.65
2023-08-17T15:04:53.200Z,10.93
2023-08-17T15:07:22.065Z,10.40
2023-08-17T15:09:50.330Z,10.52
2023-08-17T15:12:17.858Z,10.00
2023-08-17T15:14:45.360Z,10.00
2023-08-17T15:17:13.624Z,9.40
2023-08-17T15:19:42.329Z,9.50
2023-08-17T15:22:15.493Z,8.90
2023-08-17T15:24:45.389Z,8.65
2023-08-17T15:27:12.949Z,8.18
2023-08-17T15:29:40.941Z,8.20
2023-08-17T15:32:08.910Z,8.90
2023-08-17T15:34:36.420Z,8.27
2023-08-17T15:37:04.167Z,7.80
2023-08-17T15:39:31.964Z,7.55
2023-08-17T15:42:00.856Z,7.40
2023-08-17T15:44:28.454Z,7.50
2023-08-17T15:46:59.143Z,7.10
2023-08-17T15:49:28.802Z,7.97
2023-08-17T15:51:56.415Z,7.85
2023-08-17T15:54:34.942Z,8.07
2023-08-17T15:57:05.619Z,8.07
2023-08-17T15:59:33.441Z,8.07
2023-08-17T16:02:01.046Z,7.55
2023-08-17T16:04:28.566Z,8.27
2023-08-17T16:06:56.148Z,8.93
2023-08-17T16:09:23.863Z,7.60
2023-08-17T16:11:51.448Z,7.88
2023-08-17T16:14:20.339Z,8.48
2023-08-17T16:16:47.890Z,8.63
2023-08-17T16:19:15.403Z,8.63
2023-08-17T16:21:42.947Z,8.23
2023-08-17T16:24:10.567Z,8.70
2023-08-17T16:26:38.154Z,8.18
2023-08-17T16:29:06.091Z,9.40
2023-08-17T16:31:37.129Z,9.75
2023-08-17T16:34:05.145Z,10.23
2023-08-17T16:36:36.297Z,10.57
2023-08-17T16:39:04.718Z,13.73
2023-08-17T16:41:32.302Z,13.90
2023-08-17T16:44:05.606Z,13.70
2023-08-17T16:46:34.932Z,12.43
2023-08-17T16:49:02.474Z,12.68
2023-08-17T16:54:03.018Z,12.05
2023-08-17T16:56:30.543Z,12.00
2023-08-17T16:59:01.776Z,11.02
2023-08-17T17:01:29.656Z,11.27
2023-08-17T17:03:58.600Z,10.55
2023-08-17T17:06:26.369Z,13.48
2023-08-17T17:08:54.662Z,14.50
2023-08-17T17:11:22.182Z,12.75
2023-08-17T17:13:49.968Z,9.40
2023-08-17T17:16:20.341Z,9.88
2023-08-17T17:18:48.401Z,10.00
2023-08-17T17:21:17.270Z,9.55
2023-08-17T17:23:46.079Z,9.15
2023-08-17T17:26:14.234Z,9.45
2023-08-17T17:28:41.882Z,9.25
2023-08-17T17:31:09.725Z,9.30
2023-08-17T17:33:37.293Z,9.25
2023-08-17T17:36:05.539Z,9.13
2023-08-17T17:38:34.396Z,9.68
2023-08-17T17:41:01.956Z,9.38
2023-08-17T17:43:29.529Z,9.15
2023-08-17T17:45:57.201Z,9.43
2023-08-17T17:48:24.729Z,8.75
2023-08-17T17:50:52.259Z,8.70
2023-08-17T17:53:19.830Z,9.18
2023-08-17T17:55:48.680Z,9.50
2023-08-17T17:58:16.294Z,9.85
2023-08-17T18:00:44.119Z,10.00
2023-08-17T18:03:14.403Z,10.18
2023-08-17T18:05:44.056Z,9.40
2023-08-17T18:08:11.918Z,9.23
2023-08-17T18:10:40.178Z,9.35
2023-08-17T18:13:10.116Z,9.13
2023-08-17T18:15:38.932Z,9.05
2023-08-17T18:18:08.536Z,9.85
2023-08-17T18:20:36.236Z,9.25
2023-08-17T18:23:03.856Z,10.38
2023-08-17T18:25:32.932Z,10.27
2023-08-17T18:28:00.647Z,11.23
2023-08-17T18:30:30.173Z,11.35
2023-08-17T18:32:57.930Z,11.43
2023-08-17T18:35:25.588Z,12.23
2023-08-17T18:37:53.183Z,11.20
2023-08-17T18:40:21.635Z,11.02
2023-08-17T18:42:50.645Z,11.02
2023-08-17T18:45:20.297Z,11.98
2023-08-17T18:47:49.284Z,10.57
2023-08-17T18:50:17.641Z,11.68
2023-08-17T18:52:45.459Z,12.15
2023-08-17T18:55:14.233Z,11.00
2023-08-17T18:57:42.251Z,10.45
2023-08-17T19:00:11.875Z,10.57
2023-08-17T19:02:41.179Z,11.20
2023-08-17T19:05:11.076Z,10.85
2023-08-17T19:07:38.614Z,10.90
2023-08-17T19:10:07.428Z,10.85
2023-08-17T19:12:35.558Z,11.38
2023-08-17T19:15:03.301Z,12.30
2023-08-17T19:17:32.284Z,12.82
2023-08-17T19:20:00.336Z,12.32
2023-08-17T19:22:29.285Z,13.65
2023-08-17T19:24:56.811Z,12.93
2023-08-17T19:27:24.387Z,12.48
2023-08-17T19:29:51.920Z,13.10
2023-08-17T19:32:19.402Z,13.23
2023-08-17T19:34:46.942Z,13.10
2023-08-17T19:37:14.582Z,14.35
2023-08-17T19:39:43.446Z,14.43
2023-08-17T19:42:11.071Z,14.52
2023-08-17T19:44:38.921Z,14.30
2023-08-17T19:47:07.892Z,14.23
2023-08-17T19:49:35.739Z,13.43
2023-08-17T19:52:03.460Z,13.13
2023-08-17T19:54:31.003Z,15.00
2023-08-17T19:56:59.887Z,13.35
2023-08-17T19:59:27.448Z,14.13
2023-08-17T20:01:55.304Z,13.85
2023-08-17T20:04:22.901Z,13.18
2023-08-17T20:06:51.020Z,13.55
2023-08-17T20:09:18.591Z,13.48
2023-08-17T20:11:46.060Z,14.05
2023-08-17T20:14:17.000Z,13.40
2023-08-17T20:16:44.830Z,12.82
2023-08-17T20:19:12.328Z,13.10
2023-08-17T20:21:39.828Z,13.63
2023-08-17T20:24:09.452Z,13.13
2023-08-17T20:26:37.447Z,12.57
2023-08-17T20:29:05.645Z,12.75
2023-08-17T20:31:34.920Z,11.95
2023-08-17T20:34:02.455Z,12.38
2023-08-17T20:36:29.990Z,11.65
2023-08-17T20:38:57.531Z,11.52
2023-08-17T20:41:25.075Z,12.05
2023-08-17T20:43:53.769Z,11.80
2023-08-17T20:46:21.352Z,10.30
2023-08-17T20:48:50.759Z,11.00
2023-08-17T20:51:18.327Z,11.32
2023-08-17T20:53:45.903Z,11.23
2023-08-17T20:56:13.581Z,10.43
2023-08-17T20:58:41.156Z,11.20
2023-08-17T21:01:08.781Z,10.77
2023-08-17T21:03:37.075Z,10.55
2023-08-17T21:06:07.112Z,10.80
2023-08-17T21:08:35.008Z,10.13
2023-08-17T21:11:03.222Z,10.48
2023-08-17T21:13:31.208Z,9.77
2023-08-17T21:16:05.917Z,8.98
2023-08-17T21:18:33.890Z,9.82
2023-08-17T21:21:01.493Z,10.10
2023-08-17T21:23:31.722Z,9.52
2023-08-17T21:25:59.958Z,9.77
2023-08-17T21:28:27.776Z,10.45
2023-08-17T21:31:02.368Z,10.25
2023-08-17T21:33:30.243Z,9.50
2023-08-17T21:35:58.597Z,9.23
2023-08-17T21:38:26.341Z,10.25
2023-08-17T21:40:58.951Z,9.85
2023-08-17T21:43:26.726Z,10.13
2023-08-17T21:45:55.869Z,9.20
2023-08-17T21:48:23.738Z,9.45
2023-08-17T21:50:51.338Z,9.77
2023-08-17T21:53:19.780Z,10.00
2023-08-17T21:55:47.550Z,10.52
2023-08-17T21:58:16.475Z,10.07
2023-08-17T22:00:44.307Z,11.43
2023-08-17T22:03:12.054Z,10.82
2023-08-17T22:05:40.433Z,11.40
2023-08-17T22:08:08.138Z,9.90
2023-08-17T22:10:35.864Z,9.65
2023-08-17T22:13:03.486Z,9.27
2023-08-17T22:15:32.383Z,9.73
2023-08-17T22:17:59.936Z,10.05
2023-08-17T22:20:27.675Z,9.88
2023-08-17T22:22:55.199Z,10.52
2023-08-17T22:25:22.711Z,9.15
2023-08-17T22:27:50.688Z,10.07
2023-08-17T22:30:18.331Z,10.98
2023-08-17T22:32:47.318Z,10.40
2023-08-17T22:35:14.905Z,9.95
2023-08-17T22:37:42.472Z,11.55
2023-08-17T22:40:11.504Z,11.45
2023-08-17T22:42:39.299Z,11.55
2023-08-17T22:45:08.406Z,11.55
2023-08-17T22:47:38.284Z,11.88
2023-08-17T22:50:08.932Z,11.45
2023-08-17T22:52:36.464Z,11.45
2023-08-17T22:55:04.373Z,11.50
2023-08-17T22:57:31.991Z,11.50
2023-08-17T23:00:00.765Z,12.35
2023-08-17T23:02:28.354Z,11.25
2023-08-17T23:04:56.024Z,11.20
2023-08-17T23:07:24.891Z,11.95
2023-08-17T23:09:52.402Z,10.55
2023-08-17T23:12:19.961Z,11.10
2023-08-17T23:14:47.608Z,11.23
2023-08-17T23:17:15.171Z,11.63
2023-08-17T23:19:42.719Z,11.50
2023-08-17T23:22:10.252Z,10.95
2023-08-17T23:24:39.359Z,12.70
2023-08-17T23:27:07.481Z,11.63
2023-08-17T23:29:35.659Z,12.20
2023-08-17T23:32:20.486Z,11.40
2023-08-17T23:34:54.945Z,12.00
2023-08-17T23:37:22.488Z,11.95
2023-08-17T23:39:54.330Z,12.77
2023-08-17T23:42:22.220Z,12.27
2023-08-17T23:44:49.754Z,12.10
2023-08-17T23:47:17.373Z,12.23
2023-08-17T23:49:45.554Z,12.88
2023-08-17T23:52:13.235Z,13.18
2023-08-17T23:54:40.812Z,12.57
2023-08-17T23:57:09.707Z,12.82
2023-08-17T23:59:37.234Z,12.30
